Time;durP1;ratioP1;P1;durP2;ratioP2;P2;SDS_P1;SDS_P2;PMS_P1;PMS_P2;Temp;Humidity;BMP_temperature;BMP_pressure;BME280_temperature;BME280_humidity;BME280_pressure;Samples;Min_cycle;Max_cycle;Signal;HPM_P1;HPM_P2
2023/09/26 00:00:32;;;;;;;2.50;1.70;;;;;22.30;101122.00;;;;2587713;22;20426;-59
2023/09/26 00:01:32;;;;;;;1.95;1.70;;;;;22.30;101123.00;;;;2575868;22;20219;-59
2023/09/26 00:02:32;;;;;;;2.10;1.90;;;;;22.30;101120.00;;;;2587438;22;20202;-58
2023/09/26 00:03:32;;;;;;;1.60;1.47;;;;;22.30;101123.00;;;;2589904;22;20430;-58
2023/09/26 00:04:33;;;;;;;2.87;1.80;;;;;22.30;101119.00;;;;2589881;22;20199;-60
2023/09/26 00:05:33;;;;;;;1.83;1.63;;;;;22.30;101117.00;;;;2591238;22;20657;-58
2023/09/26 00:06:34;;;;;;;2.07;1.60;;;;;22.30;101126.00;;;;2575530;22;20657;-58
2023/09/26 00:07:36;;;;;;;1.93;1.73;;;;;22.30;101119.00;;;;2588958;22;20622;-59
2023/09/26 00:08:36;;;;;;;2.55;1.60;;;;;22.30;101119.00;;;;2597930;22;20261;-59
2023/09/26 00:09:37;;;;;;;2.13;1.67;;;;;22.30;101116.00;;;;2588993;22;20230;-59
2023/09/26 00:10:37;;;;;;;1.50;1.40;;;;;22.30;101128.00;;;;2587765;22;20863;-58
2023/09/26 00:11:38;;;;;;;1.77;1.60;;;;;22.30;101122.00;;;;2574614;22;20195;-59
2023/09/26 00:12:38;;;;;;;3.07;1.90;;;;;22.30;101125.00;;;;2595837;22;20268;-59
2023/09/26 00:13:39;;;;;;;2.63;1.83;;;;;22.30;101125.00;;;;2588211;22;20203;-59
2023/09/26 00:14:39;;;;;;;2.00;1.40;;;;;22.30;101126.00;;;;2588963;22;20214;-59
2023/09/26 00:15:40;;;;;;;2.00;1.80;;;;;22.30;101122.00;;;;2588265;22;20210;-60
2023/09/26 00:16:40;;;;;;;2.13;1.90;;;;;22.30;101120.00;;;;2568571;22;20200;-59
2023/09/26 00:17:41;;;;;;;3.33;1.60;;;;;22.30;101121.00;;;;2589933;22;20261;-59
2023/09/26 00:18:42;;;;;;;2.30;1.70;;;;;22.30;101120.00;;;;2589508;22;20591;-59
2023/09/26 00:19:42;;;;;;;2.13;1.70;;;;;22.30;101123.00;;;;2589442;22;20195;-59
2023/09/26 00:20:44;;;;;;;2.00;1.33;;;;;22.20;101121.00;;;;2590700;22;20248;-59
2023/09/26 00:21:44;;;;;;;2.38;1.65;;;;;22.30;101116.00;;;;2577691;22;20191;-59
2023/09/26 00:22:45;;;;;;;1.73;1.47;;;;;22.30;101113.00;;;;2602550;22;20542;-59
2023/09/26 00:23:45;;;;;;;1.70;1.50;;;;;22.30;101122.00;;;;2595955;22;20192;-59
2023/09/26 00:24:45;;;;;;;1.77;1.50;;;;;22.30;101125.00;;;;2588163;22;20199;-60
2023/09/26 00:25:46;;;;;;;2.40;1.83;;;;;22.20;101125.00;;;;2587246;22;20198;-60
2023/09/26 00:26:46;;;;;;;1.90;1.57;;;;;22.30;101177.00;;;;2574853;22;20195;-59
2023/09/26 00:27:47;;;;;;;1.87;1.50;;;;;22.30;101122.00;;;;2602013;22;20709;-58
2023/09/26 00:28:47;;;;;;;1.80;1.50;;;;;22.30;101129.00;;;;2593991;22;20207;-59
2023/09/26 00:29:47;;;;;;;2.00;1.80;;;;;22.30;101127.00;;;;2588776;22;20196;-59
2023/09/26 00:30:48;;;;;;;1.90;1.67;;;;;22.30;101131.00;;;;2589447;22;20199;-60
2023/09/26 00:31:50;;;;;;;2.40;2.00;;;;;22.30;101128.00;;;;2575327;22;20244;-59
2023/09/26 00:32:51;;;;;;;1.80;1.55;;;;;22.20;101129.00;;;;2587913;22;20203;-59
2023/09/26 00:33:53;;;;;;;2.23;1.30;;;;;22.30;101118.00;;;;2584370;22;20225;-59
2023/09/26 00:34:53;;;;;;;1.67;1.58;;;;;22.20;101127.00;;;;2590734;22;20661;-59
2023/09/26 00:35:53;;;;;;;2.00;1.67;;;;;22.20;101117.00;;;;2590454;22;20196;-58
2023/09/26 00:36:55;;;;;;;2.00;1.77;;;;;22.20;101117.00;;;;2576062;22;20538;-59
2023/09/26 00:37:55;;;;;;;1.95;1.65;;;;;22.20;101180.00;;;;2586538;22;20226;-59
2023/09/26 00:38:55;;;;;;;1.90;1.60;;;;;22.20;101086.00;;;;2587399;22;20697;-58
2023/09/26 00:39:56;;;;;;;1.80;1.60;;;;;22.20;101115.00;;;;2587813;22;20203;-59
2023/09/26 00:40:56;;;;;;;1.87;1.67;;;;;22.20;101113.00;;;;2586912;22;20677;-58
2023/09/26 00:41:56;;;;;;;1.57;1.40;;;;;22.20;101121.00;;;;2583210;22;20983;-59
2023/09/26 00:43:00;;;;;;;2.40;1.60;;;;;22.20;101125.00;;;;2602362;22;20696;-58
2023/09/26 00:44:00;;;;;;;2.67;1.67;;;;;22.20;101121.00;;;;2593604;22;20218;-59
2023/09/26 00:45:00;;;;;;;1.90;1.70;;;;;22.20;101123.00;;;;2588966;22;20691;-60
2023/09/26 00:46:01;;;;;;;2.07;1.60;;;;;22.20;101124.00;;;;2590778;22;21044;-58
2023/09/26 00:47:01;;;;;;;2.20;1.87;;;;;22.20;101123.00;;;;2561955;22;20889;-59
2023/09/26 00:48:05;;;;;;;2.27;2.07;;;;;22.20;101120.00;;;;2564757;23;20246;-59
2023/09/26 00:49:06;;;;;;;2.42;1.90;;;;;22.20;101129.00;;;;2574097;22;20271;-59
2023/09/26 00:50:10;;;;;;;2.05;1.67;;;;;22.20;101119.00;;;;2576646;22;20192;-59
2023/09/26 00:51:10;;;;;;;2.30;1.83;;;;;22.20;101131.00;;;;2577809;22;20259;-59
2023/09/26 00:52:11;;;;;;;2.10;1.90;;;;;22.20;101128.00;;;;2572710;22;20191;-59
2023/09/26 00:53:11;;;;;;;1.50;1.40;;;;;22.20;101127.00;;;;2576973;23;20196;-58
2023/09/26 00:54:12;;;;;;;2.00;1.77;;;;;22.20;101127.00;;;;2575501;23;20254;-59
2023/09/26 00:55:13;;;;;;;3.00;1.60;;;;;22.20;101131.00;;;;2589703;22;20191;-59
2023/09/26 00:56:14;;;;;;;2.10;1.90;;;;;22.20;101126.00;;;;2564048;23;20193;-58
2023/09/26 00:57:14;;;;;;;1.97;1.77;;;;;22.20;101120.00;;;;2550372;23;20220;-59
2023/09/26 00:58:15;;;;;;;1.97;1.77;;;;;22.20;101118.00;;;;2589320;22;20196;-59
2023/09/26 00:59:15;;;;;;;2.50;1.87;;;;;22.20;101129.00;;;;2574624;22;20259;-59
2023/09/26 01:00:18;;;;;;;1.93;1.63;;;;;22.20;101118.00;;;;2574748;22;20434;-59
2023/09/26 01:01:20;;;;;;;1.80;1.48;;;;;22.20;101120.00;;;;2575625;22;20191;-58
2023/09/26 01:02:22;;;;;;;1.85;1.55;;;;;22.20;101121.00;;;;2589370;22;20538;-60
2023/09/26 01:03:22;;;;;;;1.90;1.50;;;;;22.20;101119.00;;;;2590224;22;20188;-59
2023/09/26 01:04:22;;;;;;;2.03;1.40;;;;;22.20;101088.00;;;;2589860;22;20961;-59
2023/09/26 01:05:23;;;;;;;2.50;1.50;;;;;22.20;101122.00;;;;2590737;22;20510;-59
2023/09/26 01:06:23;;;;;;;3.07;2.10;;;;;22.20;101130.00;;;;2576992;22;20874;-59
2023/09/26 01:07:23;;;;;;;1.80;1.57;;;;;22.20;101117.00;;;;2602060;22;20708;-59
2023/09/26 01:08:24;;;;;;;2.73;1.80;;;;;22.20;101123.00;;;;2600727;22;20191;-59
2023/09/26 01:09:24;;;;;;;2.40;1.87;;;;;22.20;101124.00;;;;2587944;22;20563;-59
2023/09/26 01:10:24;;;;;;;1.40;1.30;;;;;22.20;101118.00;;;;2589624;22;20221;-59
2023/09/26 01:11:25;;;;;;;2.37;1.63;;;;;22.20;101125.00;;;;2575589;22;20202;-59
2023/09/26 01:12:26;;;;;;;3.57;1.80;;;;;22.20;101122.00;;;;2573819;23;20230;-59
2023/09/26 01:13:26;;;;;;;1.73;1.50;;;;;22.20;101119.00;;;;2577157;22;20204;-59
2023/09/26 01:14:27;;;;;;;2.50;1.60;;;;;22.20;101150.00;;;;2588967;22;20282;-59
2023/09/26 01:15:36;;;;;;;2.23;1.77;;;;;22.20;101106.00;;;;2589917;22;20192;-59
2023/09/26 01:16:38;;;;;;;2.05;1.52;;;;;22.20;101108.00;;;;2575929;22;20236;-59
2023/09/26 01:17:39;;;;;;;2.05;1.85;;;;;22.20;101114.00;;;;2590526;22;20658;-59
2023/09/26 01:18:39;;;;;;;1.97;1.60;;;;;22.20;101115.00;;;;2589889;22;20218;-58
2023/09/26 01:19:39;;;;;;;1.90;1.70;;;;;22.20;101104.00;;;;2575828;23;20195;-59
2023/09/26 01:20:49;;;;;;;2.00;1.80;;;;;22.20;101111.00;;;;2576582;23;20227;-59
2023/09/26 01:21:49;;;;;;;1.90;1.70;;;;;22.20;101105.00;;;;2574635;22;20266;-59
2023/09/26 01:22:49;;;;;;;2.20;1.80;;;;;22.20;101102.00;;;;2589907;22;20188;-59
2023/09/26 01:23:56;;;;;;;1.53;1.43;;;;;22.20;101104.00;;;;2588764;22;20187;-59
2023/09/26 01:24:56;;;;;;;2.13;1.92;;;;;22.20;101102.00;;;;2574055;22;20246;-58
2023/09/26 01:25:57;;;;;;;1.80;1.47;;;;;22.20;101096.00;;;;2589890;22;20195;-58
2023/09/26 01:26:57;;;;;;;2.00;1.60;;;;;22.20;101094.00;;;;2587399;22;20199;-59
2023/09/26 01:28:01;;;;;;;3.50;1.70;;;;;22.20;101100.00;;;;2601228;22;20194;-58
2023/09/26 01:29:02;;;;;;;1.85;1.50;;;;;22.20;101132.00;;;;2593533;22;20492;-58
2023/09/26 01:30:03;;;;;;;1.60;1.40;;;;;22.20;101090.00;;;;2588882;22;20571;-59
2023/09/26 01:31:03;;;;;;;3.40;1.80;;;;;22.20;101091.00;;;;2587280;22;20195;-58
2023/09/26 01:32:04;;;;;;;1.73;1.60;;;;;22.20;101088.00;;;;2576585;22;20479;-58
2023/09/26 01:33:08;;;;;;;2.20;1.90;;;;;22.20;101088.00;;;;2589240;22;20195;-59
2023/09/26 01:34:08;;;;;;;1.75;1.50;;;;;22.20;101086.00;;;;2587820;22;20360;-59
2023/09/26 01:35:08;;;;;;;2.47;1.80;;;;;22.20;101089.00;;;;2590249;22;20196;-58
2023/09/26 01:36:09;;;;;;;1.80;1.53;;;;;22.20;101095.00;;;;2590978;22;20515;-60
2023/09/26 01:37:09;;;;;;;1.70;1.53;;;;;22.20;101082.00;;;;2574959;22;20246;-58
2023/09/26 01:38:09;;;;;;;1.83;1.60;;;;;22.20;101079.00;;;;2589012;22;20195;-59
2023/09/26 01:39:10;;;;;;;2.10;1.90;;;;;22.20;101083.00;;;;2592557;22;20192;-58
2023/09/26 01:40:11;;;;;;;1.50;1.20;;;;;22.20;101082.00;;;;2589757;22;20191;-59
2023/09/26 01:41:11;;;;;;;1.63;1.45;;;;;22.20;101077.00;;;;2588545;22;20257;-58
2023/09/26 01:42:12;;;;;;;2.40;1.70;;;;;22.20;101075.00;;;;2572110;22;20217;-59
2023/09/26 01:43:12;;;;;;;1.60;1.50;;;;;22.20;101074.00;;;;2603023;22;20261;-59
2023/09/26 01:44:12;;;;;;;1.80;1.57;;;;;22.20;101064.00;;;;2591464;22;20200;-59
2023/09/26 01:45:13;;;;;;;3.80;1.60;;;;;22.20;101067.00;;;;2591058;22;20276;-59
2023/09/26 01:46:13;;;;;;;2.10;1.70;;;;;22.20;101070.00;;;;2590391;22;20199;-60
2023/09/26 01:47:21;;;;;;;1.87;1.40;;;;;22.20;101070.00;;;;2575007;22;20919;-59
2023/09/26 01:48:21;;;;;;;1.45;1.35;;;;;22.20;101073.00;;;;2577573;23;20188;-59
2023/09/26 01:49:21;;;;;;;2.23;1.50;;;;;22.20;101070.00;;;;2564234;23;20350;-59
2023/09/26 01:50:22;;;;;;;1.90;1.60;;;;;22.20;101073.00;;;;2590607;22;20283;-58
2023/09/26 01:51:23;;;;;;;1.70;1.60;;;;;22.20;101066.00;;;;2576332;22;20251;-59
2023/09/26 01:52:23;;;;;;;2.07;1.50;;;;;22.20;101068.00;;;;2587261;22;20434;-59
2023/09/26 01:53:23;;;;;;;2.63;1.80;;;;;22.20;101073.00;;;;2590341;22;20199;-58
2023/09/26 01:54:24;;;;;;;2.50;1.70;;;;;22.20;101068.00;;;;2589574;22;20195;-58
2023/09/26 01:55:24;;;;;;;2.00;1.80;;;;;22.20;101068.00;;;;2590905;22;20259;-59
2023/09/26 01:56:24;;;;;;;2.40;1.90;;;;;22.20;101069.00;;;;2588491;22;20198;-59
2023/09/26 01:57:25;;;;;;;1.60;1.50;;;;;22.20;101072.00;;;;2590698;22;20199;-59
2023/09/26 01:58:25;;;;;;;2.20;2.00;;;;;22.20;101067.00;;;;2583170;22;20195;-59
2023/09/26 01:59:26;;;;;;;1.80;1.47;;;;;22.20;101071.00;;;;2588319;22;20195;-59
2023/09/26 02:00:26;;;;;;;1.90;1.57;;;;;22.20;101072.00;;;;2591013;22;20531;-59
2023/09/26 02:01:27;;;;;;;2.00;1.80;;;;;22.20;101073.00;;;;2575946;22;20249;-59
2023/09/26 02:02:27;;;;;;;1.77;1.50;;;;;22.20;101074.00;;;;2591187;22;20201;-59
2023/09/26 02:03:27;;;;;;;1.70;1.50;;;;;22.20;101087.00;;;;2585596;22;20511;-59
2023/09/26 02:04:28;;;;;;;2.97;1.43;;;;;22.20;101069.00;;;;2590025;22;20593;-59
2023/09/26 02:05:28;;;;;;;2.43;1.63;;;;;22.20;101078.00;;;;2589807;22;20532;-59
2023/09/26 02:06:28;;;;;;;3.20;1.77;;;;;22.20;101070.00;;;;2578909;22;20943;-58
2023/09/26 02:07:29;;;;;;;1.70;1.30;;;;;22.20;101078.00;;;;2603023;22;20481;-58
2023/09/26 02:08:29;;;;;;;2.60;1.87;;;;;22.20;101084.00;;;;2597735;22;20203;-59
2023/09/26 02:09:29;;;;;;;2.20;1.67;;;;;22.20;101081.00;;;;2589387;22;20215;-59
2023/09/26 02:10:30;;;;;;;2.00;1.57;;;;;22.20;101076.00;;;;2590615;22;20281;-59
2023/09/26 02:11:30;;;;;;;1.60;1.50;;;;;22.20;101071.00;;;;2577623;22;20199;-60
2023/09/26 02:12:31;;;;;;;2.10;1.80;;;;;22.20;101072.00;;;;2590416;22;20588;-60
2023/09/26 02:13:32;;;;;;;1.83;1.60;;;;;22.20;101073.00;;;;2589713;22;20233;-60
2023/09/26 02:14:32;;;;;;;1.77;1.60;;;;;22.20;101069.00;;;;2587511;22;20461;-59
2023/09/26 02:15:32;;;;;;;1.57;1.30;;;;;22.20;101070.00;;;;2590952;22;20192;-60
2023/09/26 02:16:33;;;;;;;1.97;1.40;;;;;22.20;101065.00;;;;2575742;22;20222;-58
2023/09/26 02:17:35;;;;;;;1.90;1.70;;;;;22.20;101063.00;;;;2576318;22;20210;-59
2023/09/26 02:18:35;;;;;;;1.60;1.30;;;;;22.10;101066.00;;;;2577297;22;20754;-59
2023/09/26 02:19:36;;;;;;;1.60;1.30;;;;;22.20;101058.00;;;;2587984;22;20203;-60
2023/09/26 02:20:36;;;;;;;2.00;1.70;;;;;22.20;101066.00;;;;2589710;22;20204;-59
2023/09/26 02:21:37;;;;;;;1.90;1.10;;;;;22.20;101074.00;;;;2575649;22;20200;-59
2023/09/26 02:22:37;;;;;;;2.10;1.53;;;;;22.20;101065.00;;;;2588592;22;20669;-59
2023/09/26 02:23:37;;;;;;;1.60;1.30;;;;;22.20;101063.00;;;;2590096;22;20642;-59
2023/09/26 02:24:38;;;;;;;1.97;1.63;;;;;21.70;101063.00;;;;2589315;22;20287;-58
2023/09/26 02:25:38;;;;;;;2.17;1.60;;;;;22.10;101061.00;;;;2590283;22;20194;-59
2023/09/26 02:26:39;;;;;;;1.60;1.47;;;;;22.20;101067.00;;;;2575444;22;20242;-59
2023/09/26 02:27:40;;;;;;;1.63;1.40;;;;;22.20;101059.00;;;;2576933;23;20215;-58
2023/09/26 02:28:40;;;;;;;1.43;1.33;;;;;22.10;101056.00;;;;2589237;22;20676;-59
2023/09/26 02:29:40;;;;;;;1.80;1.40;;;;;22.10;101068.00;;;;2589647;22;20429;-59
2023/09/26 02:30:41;;;;;;;1.60;1.50;;;;;22.20;101066.00;;;;2590893;22;20211;-58
2023/09/26 02:31:41;;;;;;;1.90;1.40;;;;;22.20;101058.00;;;;2574815;22;20217;-59
2023/09/26 02:32:41;;;;;;;1.70;1.50;;;;;22.20;101062.00;;;;2586470;22;20192;-60
2023/09/26 02:33:42;;;;;;;2.13;1.60;;;;;22.20;101058.00;;;;2586205;22;20188;-58
2023/09/26 02:34:42;;;;;;;1.50;1.37;;;;;22.20;101050.00;;;;2589987;22;20195;-59
2023/09/26 02:35:43;;;;;;;2.20;1.50;;;;;22.20;101047.00;;;;2590689;22;21021;-58
2023/09/26 02:36:43;;;;;;;2.10;1.77;;;;;22.20;101062.00;;;;2580988;22;20241;-58
2023/09/26 02:37:43;;;;;;;1.50;1.40;;;;;22.20;101057.00;;;;2601291;22;20215;-59
2023/09/26 02:38:44;;;;;;;2.07;1.77;;;;;22.20;101058.00;;;;2588152;22;20203;-59
2023/09/26 02:39:44;;;;;;;1.60;1.40;;;;;22.20;101054.00;;;;2587703;22;20191;-59
2023/09/26 02:40:44;;;;;;;2.63;1.40;;;;;22.20;101061.00;;;;2589427;22;20209;-59
2023/09/26 02:41:45;;;;;;;1.53;1.43;;;;;22.20;101053.00;;;;2588024;22;20190;-59
2023/09/26 02:42:45;;;;;;;2.00;1.60;;;;;22.20;101046.00;;;;2587304;22;20196;-59
2023/09/26 02:43:47;;;;;;;2.43;1.40;;;;;22.10;101059.00;;;;2590241;22;20192;-59
2023/09/26 02:44:48;;;;;;;1.52;1.42;;;;;22.20;101066.00;;;;2587036;22;20212;-60
2023/09/26 02:45:49;;;;;;;2.40;1.70;;;;;22.10;101062.00;;;;2589694;22;20638;-58
2023/09/26 02:46:49;;;;;;;1.80;1.40;;;;;22.20;101056.00;;;;2576331;22;20697;-59
2023/09/26 02:47:50;;;;;;;1.67;1.20;;;;;22.10;101069.00;;;;2588658;22;20191;-58
2023/09/26 02:48:50;;;;;;;1.63;1.50;;;;;22.10;101061.00;;;;2590346;22;20199;-59
2023/09/26 02:49:50;;;;;;;1.53;1.30;;;;;22.10;101055.00;;;;2587135;22;20192;-63
2023/09/26 02:50:51;;;;;;;1.80;1.60;;;;;22.10;101051.00;;;;2590082;22;20191;-59
2023/09/26 02:51:51;;;;;;;1.70;1.57;;;;;21.40;101057.00;;;;2575950;22;20215;-59
2023/09/26 02:52:52;;;;;;;1.70;1.43;;;;;22.10;101054.00;;;;2589133;22;20187;-60
2023/09/26 02:53:52;;;;;;;2.07;1.47;;;;;22.10;101057.00;;;;2590009;22;20241;-59
2023/09/26 02:54:53;;;;;;;1.90;1.50;;;;;22.10;101052.00;;;;2589068;22;20434;-59
2023/09/26 02:55:53;;;;;;;2.17;1.53;;;;;22.10;101049.00;;;;2587174;22;20661;-58
2023/09/26 02:56:53;;;;;;;1.70;1.50;;;;;22.10;101051.00;;;;2586843;22;20474;-58
2023/09/26 02:57:54;;;;;;;1.60;1.37;;;;;22.10;101052.00;;;;2590846;22;20249;-58
2023/09/26 02:58:54;;;;;;;1.87;1.50;;;;;22.10;101047.00;;;;2590138;22;20206;-58
2023/09/26 02:59:54;;;;;;;2.57;1.50;;;;;22.10;101052.00;;;;2589259;22;20265;-59
2023/09/26 03:00:55;;;;;;;1.50;1.40;;;;;22.10;101045.00;;;;2590401;22;20199;-59
2023/09/26 03:01:56;;;;;;;2.60;1.60;;;;;22.10;101050.00;;;;2573830;22;20215;-58
2023/09/26 03:02:56;;;;;;;1.50;1.20;;;;;22.10;101047.00;;;;2590714;22;20270;-59
2023/09/26 03:03:56;;;;;;;1.97;1.70;;;;;22.10;101044.00;;;;2591145;22;20433;-58
2023/09/26 03:04:57;;;;;;;1.40;1.20;;;;;22.10;101050.00;;;;2590940;22;20187;-59
2023/09/26 03:05:58;;;;;;;1.80;1.60;;;;;22.10;101044.00;;;;2591226;22;20199;-59
2023/09/26 03:06:58;;;;;;;2.00;1.50;;;;;22.10;101050.00;;;;2574098;22;20266;-58
2023/09/26 03:07:59;;;;;;;1.83;1.30;;;;;22.10;101050.00;;;;2590752;22;20188;-59
2023/09/26 03:08:59;;;;;;;1.57;1.47;;;;;22.10;101040.00;;;;2590291;22;20196;-58
2023/09/26 03:09:59;;;;;;;1.73;1.60;;;;;22.10;101045.00;;;;2589525;22;20219;-58
2023/09/26 03:11:00;;;;;;;1.37;1.20;;;;;22.10;101043.00;;;;2588494;22;20183;-58
2023/09/26 03:12:00;;;;;;;2.03;1.47;;;;;22.10;101041.00;;;;2571342;22;20187;-59
2023/09/26 03:13:00;;;;;;;1.80;1.47;;;;;22.10;101040.00;;;;2590450;22;20184;-58
2023/09/26 03:14:01;;;;;;;2.70;1.63;;;;;22.10;101043.00;;;;2590039;22;20187;-59
2023/09/26 03:15:02;;;;;;;1.90;1.53;;;;;22.10;101044.00;;;;2590715;22;20207;-59
2023/09/26 03:16:04;;;;;;;1.83;1.42;;;;;22.10;101042.00;;;;2590206;22;20187;-59
2023/09/26 03:17:05;;;;;;;1.60;1.17;;;;;22.10;101045.00;;;;2552708;22;20594;-59
2023/09/26 03:18:06;;;;;;;2.00;1.38;;;;;22.10;101040.00;;;;2589741;22;20196;-60
2023/09/26 03:19:07;;;;;;;1.50;1.23;;;;;22.10;101047.00;;;;2588808;22;20191;-58
2023/09/26 03:20:14;;;;;;;2.20;1.80;;;;;22.10;101051.00;;;;2574126;22;20184;-60
2023/09/26 03:21:14;;;;;;;2.05;1.77;;;;;22.10;101046.00;;;;2578300;22;20196;-58
2023/09/26 03:22:15;;;;;;;2.00;1.60;;;;;22.10;101048.00;;;;2569396;22;20191;-59
2023/09/26 03:23:15;;;;;;;1.50;1.17;;;;;22.10;101035.00;;;;2590125;22;20202;-59
2023/09/26 03:24:16;;;;;;;1.50;1.40;;;;;22.10;101046.00;;;;2589763;22;20199;-58
2023/09/26 03:25:16;;;;;;;1.88;1.60;;;;;22.10;101040.00;;;;2602877;22;20194;-58
2023/09/26 03:26:17;;;;;;;1.70;1.40;;;;;22.10;101039.00;;;;2582490;22;20656;-59
2023/09/26 03:27:17;;;;;;;1.90;1.40;;;;;22.10;101042.00;;;;2581381;22;20191;-58
2023/09/26 03:28:17;;;;;;;1.77;1.63;;;;;22.10;101044.00;;;;2587953;22;20192;-59
2023/09/26 03:29:19;;;;;;;1.60;1.40;;;;;21.10;101047.00;;;;2587787;22;20278;-59
2023/09/26 03:30:19;;;;;;;1.85;1.48;;;;;22.10;101041.00;;;;2590134;22;20187;-58
2023/09/26 03:31:20;;;;;;;3.63;1.90;;;;;22.10;101035.00;;;;2575922;22;20184;-58
2023/09/26 03:32:20;;;;;;;1.90;1.47;;;;;22.10;101044.00;;;;2589841;22;20215;-59
2023/09/26 03:33:21;;;;;;;2.00;1.43;;;;;22.10;101038.00;;;;2588673;22;20191;-59
2023/09/26 03:34:21;;;;;;;1.60;1.30;;;;;22.10;101038.00;;;;2578815;22;20195;-58
2023/09/26 03:35:21;;;;;;;1.60;1.30;;;;;22.10;101041.00;;;;2602938;22;20244;-59
2023/09/26 03:36:22;;;;;;;1.70;1.50;;;;;22.10;101036.00;;;;2574952;22;20270;-58
2023/09/26 03:37:22;;;;;;;1.50;1.33;;;;;22.10;101045.00;;;;2590509;22;20195;-59
2023/09/26 03:38:23;;;;;;;2.07;1.87;;;;;22.10;101042.00;;;;2589395;22;20191;-59
2023/09/26 03:39:23;;;;;;;1.90;1.60;;;;;22.10;101037.00;;;;2581858;22;20304;-59
2023/09/26 03:40:23;;;;;;;2.27;1.40;;;;;22.10;101034.00;;;;2590417;22;20272;-60
2023/09/26 03:41:24;;;;;;;1.53;1.30;;;;;22.10;101038.00;;;;2576843;22;20195;-59
2023/09/26 03:42:24;;;;;;;2.63;1.47;;;;;22.10;101040.00;;;;2590906;22;20682;-58
2023/09/26 03:43:25;;;;;;;1.50;1.27;;;;;22.10;101036.00;;;;2590607;22;20195;-58
2023/09/26 03:44:26;;;;;;;1.98;1.40;;;;;22.10;101028.00;;;;2589836;22;20511;-59
2023/09/26 03:45:26;;;;;;;2.10;1.90;;;;;22.10;101037.00;;;;2588523;22;20229;-58
2023/09/26 03:46:27;;;;;;;1.60;1.50;;;;;22.10;101028.00;;;;2588471;22;20265;-58
2023/09/26 03:47:27;;;;;;;1.90;1.60;;;;;22.10;101040.00;;;;2590661;22;20202;-59
2023/09/26 03:48:27;;;;;;;1.73;1.40;;;;;22.10;101035.00;;;;2589998;22;20215;-59
2023/09/26 03:49:28;;;;;;;1.10;1.00;;;;;22.10;101037.00;;;;2588869;22;20266;-58
2023/09/26 03:50:28;;;;;;;1.70;1.47;;;;;22.10;101035.00;;;;2590460;22;20507;-58
2023/09/26 03:51:29;;;;;;;1.40;1.20;;;;;22.10;101035.00;;;;2578847;22;20787;-58
2023/09/26 03:52:29;;;;;;;1.50;1.30;;;;;22.10;101031.00;;;;2602547;22;20696;-58
2023/09/26 03:53:30;;;;;;;2.43;1.70;;;;;22.10;101030.00;;;;2598585;22;20195;-59
2023/09/26 03:54:31;;;;;;;1.70;1.50;;;;;22.10;101030.00;;;;2590494;22;20257;-58
2023/09/26 03:55:31;;;;;;;1.70;1.40;;;;;22.10;101035.00;;;;2589358;22;20461;-58
2023/09/26 03:56:31;;;;;;;1.80;1.50;;;;;22.10;101034.00;;;;2572524;22;20822;-59
2023/09/26 03:57:35;;;;;;;1.60;1.30;;;;;22.10;101032.00;;;;2583630;22;20532;-59
2023/09/26 03:58:35;;;;;;;2.03;1.50;;;;;22.10;101029.00;;;;2588301;22;20196;-58
2023/09/26 03:59:35;;;;;;;1.63;1.50;;;;;22.10;101028.00;;;;2587192;22;20261;-59
2023/09/26 04:00:36;;;;;;;1.47;1.37;;;;;22.10;101029.00;;;;2590093;22;20195;-59
2023/09/26 04:01:37;;;;;;;1.60;1.40;;;;;22.10;101032.00;;;;2576396;22;20252;-59
2023/09/26 04:02:38;;;;;;;2.38;1.90;;;;;22.10;101028.00;;;;2587195;22;20191;-58
2023/09/26 04:03:39;;;;;;;1.70;1.48;;;;;22.10;101023.00;;;;2587143;22;20206;-58
2023/09/26 04:04:40;;;;;;;1.37;1.20;;;;;22.10;101029.00;;;;2588247;22;20219;-60
2023/09/26 04:05:40;;;;;;;1.80;1.30;;;;;22.10;101027.00;;;;2589388;22;20429;-59
2023/09/26 04:06:41;;;;;;;1.50;1.30;;;;;22.10;101022.00;;;;2588454;22;20246;-59
2023/09/26 04:07:41;;;;;;;1.70;1.40;;;;;22.10;101024.00;;;;2590548;22;20188;-58
2023/09/26 04:08:42;;;;;;;2.30;1.43;;;;;22.10;101022.00;;;;2590423;22;20434;-58
2023/09/26 04:09:42;;;;;;;1.47;1.33;;;;;22.10;101020.00;;;;2573320;22;20195;-59
2023/09/26 04:10:42;;;;;;;1.33;1.10;;;;;22.10;101015.00;;;;2589427;22;20200;-59
2023/09/26 04:11:43;;;;;;;1.60;1.47;;;;;22.10;101026.00;;;;2575212;22;20260;-58
2023/09/26 04:12:43;;;;;;;2.00;1.60;;;;;22.10;101031.00;;;;2589344;22;20195;-58
2023/09/26 04:13:44;;;;;;;1.77;1.20;;;;;22.10;101022.00;;;;2590382;22;20204;-59
2023/09/26 04:14:44;;;;;;;1.90;1.70;;;;;22.10;101033.00;;;;2589433;22;20203;-58
2023/09/26 04:15:44;;;;;;;1.47;1.23;;;;;22.10;101026.00;;;;2587802;22;20268;-59
2023/09/26 04:16:45;;;;;;;1.60;1.50;;;;;22.10;101028.00;;;;2579693;22;20199;-60
2023/09/26 04:17:45;;;;;;;1.70;1.50;;;;;22.10;101031.00;;;;2601998;22;20214;-59
2023/09/26 04:18:46;;;;;;;1.43;1.20;;;;;22.10;101024.00;;;;2595972;22;20629;-59
2023/09/26 04:19:47;;;;;;;1.70;1.50;;;;;22.10;101035.00;;;;2587103;22;20207;-59
2023/09/26 04:20:47;;;;;;;1.58;1.48;;;;;22.10;101037.00;;;;2589390;22;20279;-60
2023/09/26 04:21:48;;;;;;;1.40;1.30;;;;;22.10;101032.00;;;;2575635;22;20754;-59
2023/09/26 04:22:48;;;;;;;1.70;1.40;;;;;22.10;101024.00;;;;2590328;22;20199;-58
2023/09/26 04:23:48;;;;;;;1.47;1.37;;;;;22.10;101033.00;;;;2589674;22;20188;-58
2023/09/26 04:24:49;;;;;;;1.53;1.30;;;;;22.10;101039.00;;;;2589183;22;20203;-59
2023/09/26 04:25:49;;;;;;;2.33;1.63;;;;;22.10;101030.00;;;;2589679;22;20187;-59
2023/09/26 04:26:50;;;;;;;1.70;1.33;;;;;22.10;101031.00;;;;2575384;22;20192;-58
2023/09/26 04:27:51;;;;;;;1.57;1.43;;;;;22.10;101025.00;;;;2589976;22;20203;-58
2023/09/26 04:28:51;;;;;;;1.60;1.30;;;;;22.10;101030.00;;;;2586013;22;20195;-59
2023/09/26 04:29:52;;;;;;;1.43;1.30;;;;;22.10;101023.00;;;;2587985;22;20237;-58
2023/09/26 04:30:53;;;;;;;1.80;1.50;;;;;22.10;101028.00;;;;2590984;22;20633;-58
2023/09/26 04:31:53;;;;;;;1.40;1.30;;;;;22.10;101029.00;;;;2575911;22;20473;-59
2023/09/26 04:32:54;;;;;;;1.97;1.50;;;;;22.10;101024.00;;;;2590481;22;20195;-59
2023/09/26 04:33:54;;;;;;;1.53;1.30;;;;;22.10;101020.00;;;;2589586;22;20223;-58
2023/09/26 04:34:54;;;;;;;2.57;1.37;;;;;22.10;101025.00;;;;2590414;22;20196;-58
2023/09/26 04:35:56;;;;;;;1.53;1.23;;;;;22.10;101026.00;;;;2589764;22;20199;-58
2023/09/26 04:36:57;;;;;;;1.77;1.58;;;;;22.10;101019.00;;;;2562230;22;20196;-59
2023/09/26 04:37:57;;;;;;;2.90;1.77;;;;;22.10;101031.00;;;;2574910;22;20623;-58
2023/09/26 04:38:58;;;;;;;1.40;1.20;;;;;22.10;101021.00;;;;2587546;22;20622;-59
2023/09/26 04:39:58;;;;;;;1.80;1.40;;;;;22.10;101019.00;;;;2587907;22;20204;-60
2023/09/26 04:41:04;;;;;;;1.80;1.40;;;;;22.10;101035.00;;;;2590426;22;20201;-59
2023/09/26 04:42:05;;;;;;;2.08;1.63;;;;;22.10;101020.00;;;;2576798;22;20202;-59
2023/09/26 04:43:05;;;;;;;1.50;1.07;;;;;22.10;101021.00;;;;2590362;22;20563;-59
2023/09/26 04:44:07;;;;;;;1.83;1.50;;;;;22.10;101014.00;;;;2590822;22;20579;-58
2023/09/26 04:45:08;;;;;;;2.10;1.30;;;;;22.10;101009.00;;;;2590925;22;20191;-58
2023/09/26 04:46:15;;;;;;;1.37;1.13;;;;;22.10;101016.00;;;;2589615;22;20526;-59
2023/09/26 04:47:15;;;;;;;1.50;1.40;;;;;22.10;101009.00;;;;2575849;22;20210;-58
2023/09/26 04:48:16;;;;;;;1.70;1.43;;;;;22.10;101013.00;;;;2589180;22;20195;-59
2023/09/26 04:49:17;;;;;;;1.50;1.40;;;;;22.00;101011.00;;;;2589589;22;20542;-59
2023/09/26 04:50:17;;;;;;;1.97;1.77;;;;;22.10;101010.00;;;;2590193;22;20357;-58
2023/09/26 04:51:18;;;;;;;2.53;1.40;;;;;22.00;101007.00;;;;2577997;22;21113;-59
2023/09/26 04:52:19;;;;;;;1.95;1.40;;;;;22.10;101011.00;;;;2576719;22;20698;-58
2023/09/26 04:53:22;;;;;;;2.15;1.50;;;;;22.10;101006.00;;;;2589463;22;20894;-59
2023/09/26 04:54:22;;;;;;;1.73;1.40;;;;;22.10;101002.00;;;;2589692;22;20201;-58
2023/09/26 04:55:22;;;;;;;2.00;1.60;;;;;22.10;101014.00;;;;2589325;22;20198;-58
2023/09/26 04:56:23;;;;;;;1.80;1.70;;;;;22.10;101008.00;;;;2575296;22;20199;-59
2023/09/26 04:57:24;;;;;;;1.60;1.40;;;;;22.10;101008.00;;;;2589543;22;20196;-58
2023/09/26 04:58:24;;;;;;;3.50;1.47;;;;;22.10;101000.00;;;;2590243;22;20198;-59
2023/09/26 04:59:24;;;;;;;1.70;1.37;;;;;22.10;101003.00;;;;2588666;22;20191;-60
2023/09/26 05:00:24;;;;;;;2.10;1.63;;;;;22.00;100992.00;;;;2590479;22;20210;-59